<?xml version="1.0" encoding="UTF-8" standalone="no" ?>
<gpx xmlns="http://www.topografix.com/GPX/1/1" xmlns:xsi="http://www.w3.org/2001/XMLSchema-instance" xsi:schemaLocation="http://www.topografix.com/GPX/1/1 http://www.topografix.com/GPX/1/1/gpx.xsd" version="1.1" creator="VisuGPX - https://www.visugpx.com">
  <metadata>
    <name>OR-7978247--Cristinacce:radule</name>
  </metadata>
  <trk>
    <name><![CDATA[OR-7978247--Cristinacce:radule]]></name>
    <trkseg>
      <trkpt lat="42.29725" lon="8.88523">
        <ele>1326</ele>
        <time>2017-10-04T20:36:44Z</time>
      </trkpt>
      <trkpt lat="42.29739" lon="8.88496">
        <ele>1329</ele>
        <time>2017-10-04T20:38:44Z</time>
      </trkpt>
      <trkpt lat="42.29741" lon="8.88465">
        <ele>1337</ele>
        <time>2017-10-04T20:40:44Z</time>
      </trkpt>
      <trkpt lat="42.2976" lon="8.88429">
        <ele>1342</ele>
        <time>2017-10-04T20:42:44Z</time>
      </trkpt>
      <trkpt lat="42.29793" lon="8.88395">
        <ele>1341</ele>
        <time>2017-10-04T20:44:44Z</time>
      </trkpt>
      <trkpt lat="42.29856" lon="8.88349">
        <ele>1340</ele>
        <time>2017-10-04T20:46:44Z</time>
      </trkpt>
      <trkpt lat="42.29863" lon="8.88332">
        <ele>1342</ele>
        <time>2017-10-04T20:48:44Z</time>
      </trkpt>
      <trkpt lat="42.29885" lon="8.88317">
        <ele>1346</ele>
        <time>2017-10-04T20:50:44Z</time>
      </trkpt>
      <trkpt lat="42.29897" lon="8.88299">
        <ele>1348</ele>
        <time>2017-10-04T20:52:44Z</time>
      </trkpt>
      <trkpt lat="42.29903" lon="8.88274">
        <ele>1352</ele>
        <time>2017-10-04T20:54:44Z</time>
      </trkpt>
      <trkpt lat="42.29916" lon="8.88266">
        <ele>1353</ele>
        <time>2017-10-04T20:56:44Z</time>
      </trkpt>
      <trkpt lat="42.2993" lon="8.88267">
        <ele>1356</ele>
        <time>2017-10-04T20:58:44Z</time>
      </trkpt>
      <trkpt lat="42.29941" lon="8.88263">
        <ele>1358</ele>
        <time>2017-10-04T21:00:44Z</time>
      </trkpt>
      <trkpt lat="42.29952" lon="8.88251">
        <ele>1361</ele>
        <time>2017-10-04T21:02:44Z</time>
      </trkpt>
      <trkpt lat="42.2996" lon="8.88236">
        <ele>1365</ele>
        <time>2017-10-04T21:04:44Z</time>
      </trkpt>
      <trkpt lat="42.29969" lon="8.88231">
        <ele>1368</ele>
        <time>2017-10-04T21:06:44Z</time>
      </trkpt>
      <trkpt lat="42.29984" lon="8.88237">
        <ele>1369</ele>
        <time>2017-10-04T21:08:44Z</time>
      </trkpt>
      <trkpt lat="42.3" lon="8.88235">
        <ele>1373</ele>
        <time>2017-10-04T21:10:44Z</time>
      </trkpt>
      <trkpt lat="42.30013" lon="8.88229">
        <ele>1370</ele>
        <time>2017-10-04T21:12:44Z</time>
      </trkpt>
      <trkpt lat="42.3002" lon="8.88204">
        <ele>1373</ele>
        <time>2017-10-04T21:14:44Z</time>
      </trkpt>
      <trkpt lat="42.30029" lon="8.88174">
        <ele>1375</ele>
        <time>2017-10-04T21:16:44Z</time>
      </trkpt>
      <trkpt lat="42.30045" lon="8.88142">
        <ele>1377</ele>
        <time>2017-10-04T21:18:44Z</time>
      </trkpt>
      <trkpt lat="42.30064" lon="8.88115">
        <ele>1377</ele>
        <time>2017-10-04T21:20:44Z</time>
      </trkpt>
      <trkpt lat="42.30075" lon="8.88099">
        <ele>1377</ele>
        <time>2017-10-04T21:22:44Z</time>
      </trkpt>
      <trkpt lat="42.30182" lon="8.87871">
        <ele>1373</ele>
        <time>2017-10-04T21:24:44Z</time>
      </trkpt>
      <trkpt lat="42.3019" lon="8.87838">
        <ele>1373</ele>
        <time>2017-10-04T21:26:44Z</time>
      </trkpt>
      <trkpt lat="42.30186" lon="8.87815">
        <ele>1379</ele>
        <time>2017-10-04T21:28:44Z</time>
      </trkpt>
      <trkpt lat="42.30186" lon="8.87795">
        <ele>1383</ele>
        <time>2017-10-04T21:30:44Z</time>
      </trkpt>
      <trkpt lat="42.30198" lon="8.87781">
        <ele>1380</ele>
        <time>2017-10-04T21:32:44Z</time>
      </trkpt>
      <trkpt lat="42.3021" lon="8.87771">
        <ele>1377</ele>
        <time>2017-10-04T21:34:44Z</time>
      </trkpt>
      <trkpt lat="42.30215" lon="8.87743">
        <ele>1381</ele>
        <time>2017-10-04T21:36:44Z</time>
      </trkpt>
      <trkpt lat="42.30228" lon="8.8772">
        <ele>1383</ele>
        <time>2017-10-04T21:38:44Z</time>
      </trkpt>
      <trkpt lat="42.30252" lon="8.87703">
        <ele>1378</ele>
        <time>2017-10-04T21:40:44Z</time>
      </trkpt>
      <trkpt lat="42.30267" lon="8.87694">
        <ele>1374</ele>
        <time>2017-10-04T21:42:44Z</time>
      </trkpt>
      <trkpt lat="42.30275" lon="8.87687">
        <ele>1373</ele>
        <time>2017-10-04T21:44:44Z</time>
      </trkpt>
      <trkpt lat="42.3028" lon="8.87667">
        <ele>1377</ele>
        <time>2017-10-04T21:46:44Z</time>
      </trkpt>
      <trkpt lat="42.30292" lon="8.87657">
        <ele>1374</ele>
        <time>2017-10-04T21:48:44Z</time>
      </trkpt>
      <trkpt lat="42.30302" lon="8.87641">
        <ele>1374</ele>
        <time>2017-10-04T21:50:44Z</time>
      </trkpt>
      <trkpt lat="42.30303" lon="8.87606">
        <ele>1381</ele>
        <time>2017-10-04T21:52:44Z</time>
      </trkpt>
      <trkpt lat="42.30298" lon="8.87585">
        <ele>1388</ele>
        <time>2017-10-04T21:54:44Z</time>
      </trkpt>
      <trkpt lat="42.30294" lon="8.87563">
        <ele>1396</ele>
        <time>2017-10-04T21:56:44Z</time>
      </trkpt>
      <trkpt lat="42.303" lon="8.87539">
        <ele>1401</ele>
        <time>2017-10-04T21:58:44Z</time>
      </trkpt>
      <trkpt lat="42.30317" lon="8.87532">
        <ele>1397</ele>
        <time>2017-10-04T22:00:44Z</time>
      </trkpt>
      <trkpt lat="42.30329" lon="8.87516">
        <ele>1397</ele>
        <time>2017-10-04T22:02:44Z</time>
      </trkpt>
      <trkpt lat="42.30336" lon="8.87497">
        <ele>1401</ele>
        <time>2017-10-04T22:04:44Z</time>
      </trkpt>
      <trkpt lat="42.30349" lon="8.87487">
        <ele>1406</ele>
        <time>2017-10-04T22:06:44Z</time>
      </trkpt>
      <trkpt lat="42.30359" lon="8.87516">
        <ele>1398</ele>
        <time>2017-10-04T22:08:44Z</time>
      </trkpt>
      <trkpt lat="42.30371" lon="8.87528">
        <ele>1396</ele>
        <time>2017-10-04T22:10:44Z</time>
      </trkpt>
      <trkpt lat="42.30375" lon="8.87544">
        <ele>1391</ele>
        <time>2017-10-04T22:12:44Z</time>
      </trkpt>
      <trkpt lat="42.30394" lon="8.8756">
        <ele>1388</ele>
        <time>2017-10-04T22:14:44Z</time>
      </trkpt>
      <trkpt lat="42.30414" lon="8.87562">
        <ele>1390</ele>
        <time>2017-10-04T22:16:44Z</time>
      </trkpt>
      <trkpt lat="42.30434" lon="8.87568">
        <ele>1395</ele>
        <time>2017-10-04T22:18:44Z</time>
      </trkpt>
      <trkpt lat="42.3047" lon="8.87611">
        <ele>1393</ele>
        <time>2017-10-04T22:20:44Z</time>
      </trkpt>
      <trkpt lat="42.30475" lon="8.87637">
        <ele>1384</ele>
        <time>2017-10-04T22:22:44Z</time>
      </trkpt>
      <trkpt lat="42.30482" lon="8.87653">
        <ele>1380</ele>
        <time>2017-10-04T22:24:44Z</time>
      </trkpt>
      <trkpt lat="42.30501" lon="8.87648">
        <ele>1388</ele>
        <time>2017-10-04T22:26:44Z</time>
      </trkpt>
      <trkpt lat="42.30514" lon="8.87665">
        <ele>1385</ele>
        <time>2017-10-04T22:28:44Z</time>
      </trkpt>
      <trkpt lat="42.30538" lon="8.87688">
        <ele>1386</ele>
        <time>2017-10-04T22:30:44Z</time>
      </trkpt>
      <trkpt lat="42.30544" lon="8.87703">
        <ele>1385</ele>
        <time>2017-10-04T22:32:44Z</time>
      </trkpt>
      <trkpt lat="42.30559" lon="8.87712">
        <ele>1388</ele>
        <time>2017-10-04T22:34:44Z</time>
      </trkpt>
      <trkpt lat="42.30576" lon="8.87706">
        <ele>1395</ele>
        <time>2017-10-04T22:36:44Z</time>
      </trkpt>
      <trkpt lat="42.30592" lon="8.87706">
        <ele>1399</ele>
        <time>2017-10-04T22:38:44Z</time>
      </trkpt>
      <trkpt lat="42.30617" lon="8.87718">
        <ele>1401</ele>
        <time>2017-10-04T22:40:44Z</time>
      </trkpt>
      <trkpt lat="42.30625" lon="8.87739">
        <ele>1400</ele>
        <time>2017-10-04T22:42:44Z</time>
      </trkpt>
      <trkpt lat="42.30633" lon="8.8776">
        <ele>1403</ele>
        <time>2017-10-04T22:44:44Z</time>
      </trkpt>
      <trkpt lat="42.30645" lon="8.8776">
        <ele>1406</ele>
        <time>2017-10-04T22:46:44Z</time>
      </trkpt>
      <trkpt lat="42.3064" lon="8.87775">
        <ele>1408</ele>
        <time>2017-10-04T22:48:44Z</time>
      </trkpt>
      <trkpt lat="42.3062" lon="8.87781">
        <ele>1404</ele>
        <time>2017-10-04T22:50:44Z</time>
      </trkpt>
      <trkpt lat="42.30597" lon="8.87792">
        <ele>1398</ele>
        <time>2017-10-04T22:52:44Z</time>
      </trkpt>
      <trkpt lat="42.30587" lon="8.87803">
        <ele>1395</ele>
        <time>2017-10-04T22:54:44Z</time>
      </trkpt>
      <trkpt lat="42.30582" lon="8.87814">
        <ele>1394</ele>
        <time>2017-10-04T22:56:44Z</time>
      </trkpt>
      <trkpt lat="42.30575" lon="8.87795">
        <ele>1389</ele>
        <time>2017-10-04T22:58:44Z</time>
      </trkpt>
      <trkpt lat="42.30564" lon="8.8781">
        <ele>1385</ele>
        <time>2017-10-04T23:00:44Z</time>
      </trkpt>
      <trkpt lat="42.30549" lon="8.87825">
        <ele>1377</ele>
        <time>2017-10-04T23:02:44Z</time>
      </trkpt>
      <trkpt lat="42.30549" lon="8.87809">
        <ele>1377</ele>
        <time>2017-10-04T23:04:44Z</time>
      </trkpt>
      <trkpt lat="42.3054" lon="8.87802">
        <ele>1373</ele>
        <time>2017-10-04T23:06:44Z</time>
      </trkpt>
      <trkpt lat="42.30535" lon="8.87817">
        <ele>1370</ele>
        <time>2017-10-04T23:08:44Z</time>
      </trkpt>
      <trkpt lat="42.30538" lon="8.87834">
        <ele>1371</ele>
        <time>2017-10-04T23:10:44Z</time>
      </trkpt>
      <trkpt lat="42.30528" lon="8.87847">
        <ele>1365</ele>
        <time>2017-10-04T23:12:44Z</time>
      </trkpt>
      <trkpt lat="42.30513" lon="8.87823">
        <ele>1358</ele>
        <time>2017-10-04T23:14:44Z</time>
      </trkpt>
      <trkpt lat="42.30501" lon="8.87806">
        <ele>1353</ele>
        <time>2017-10-04T23:16:44Z</time>
      </trkpt>
      <trkpt lat="42.30494" lon="8.87793">
        <ele>1352</ele>
        <time>2017-10-04T23:18:44Z</time>
      </trkpt>
      <trkpt lat="42.30508" lon="8.8782">
        <ele>1356</ele>
        <time>2017-10-04T23:20:44Z</time>
      </trkpt>
      <trkpt lat="42.30505" lon="8.87835">
        <ele>1353</ele>
        <time>2017-10-04T23:22:44Z</time>
      </trkpt>
      <trkpt lat="42.30498" lon="8.87849">
        <ele>1348</ele>
        <time>2017-10-04T23:24:44Z</time>
      </trkpt>
      <trkpt lat="42.30478" lon="8.87847">
        <ele>1341</ele>
        <time>2017-10-04T23:26:44Z</time>
      </trkpt>
      <trkpt lat="42.30464" lon="8.87861">
        <ele>1334</ele>
        <time>2017-10-04T23:28:44Z</time>
      </trkpt>
      <trkpt lat="42.30461" lon="8.87892">
        <ele>1331</ele>
        <time>2017-10-04T23:30:44Z</time>
      </trkpt>
      <trkpt lat="42.30444" lon="8.87905">
        <ele>1324</ele>
        <time>2017-10-04T23:32:44Z</time>
      </trkpt>
      <trkpt lat="42.30435" lon="8.87965">
        <ele>1312</ele>
        <time>2017-10-04T23:34:44Z</time>
      </trkpt>
      <trkpt lat="42.30425" lon="8.87974">
        <ele>1307</ele>
        <time>2017-10-04T23:36:44Z</time>
      </trkpt>
      <trkpt lat="42.3041" lon="8.87982">
        <ele>1302</ele>
        <time>2017-10-04T23:38:44Z</time>
      </trkpt>
      <trkpt lat="42.30409" lon="8.88004">
        <ele>1299</ele>
        <time>2017-10-04T23:40:44Z</time>
      </trkpt>
      <trkpt lat="42.30407" lon="8.88034">
        <ele>1295</ele>
        <time>2017-10-04T23:42:44Z</time>
      </trkpt>
      <trkpt lat="42.30415" lon="8.88069">
        <ele>1290</ele>
        <time>2017-10-04T23:44:44Z</time>
      </trkpt>
      <trkpt lat="42.30412" lon="8.88089">
        <ele>1288</ele>
        <time>2017-10-04T23:46:44Z</time>
      </trkpt>
      <trkpt lat="42.30406" lon="8.88108">
        <ele>1287</ele>
        <time>2017-10-04T23:48:44Z</time>
      </trkpt>
      <trkpt lat="42.30405" lon="8.88152">
        <ele>1284</ele>
        <time>2017-10-04T23:50:44Z</time>
      </trkpt>
      <trkpt lat="42.30409" lon="8.88167">
        <ele>1282</ele>
        <time>2017-10-04T23:52:44Z</time>
      </trkpt>
      <trkpt lat="42.30421" lon="8.88196">
        <ele>1283</ele>
        <time>2017-10-04T23:54:44Z</time>
      </trkpt>
      <trkpt lat="42.30418" lon="8.88222">
        <ele>1281</ele>
        <time>2017-10-04T23:56:44Z</time>
      </trkpt>
      <trkpt lat="42.30414" lon="8.88265">
        <ele>1278</ele>
        <time>2017-10-04T23:58:44Z</time>
      </trkpt>
      <trkpt lat="42.30406" lon="8.88289">
        <ele>1275</ele>
        <time>2017-10-05T00:00:44Z</time>
      </trkpt>
      <trkpt lat="42.30406" lon="8.88333">
        <ele>1269</ele>
        <time>2017-10-05T00:02:44Z</time>
      </trkpt>
      <trkpt lat="42.30404" lon="8.88385">
        <ele>1264</ele>
        <time>2017-10-05T00:04:44Z</time>
      </trkpt>
      <trkpt lat="42.30402" lon="8.88406">
        <ele>1263</ele>
        <time>2017-10-05T00:06:44Z</time>
      </trkpt>
      <trkpt lat="42.30407" lon="8.88435">
        <ele>1260</ele>
        <time>2017-10-05T00:08:44Z</time>
      </trkpt>
      <trkpt lat="42.30398" lon="8.88454">
        <ele>1258</ele>
        <time>2017-10-05T00:10:44Z</time>
      </trkpt>
      <trkpt lat="42.30379" lon="8.88483">
        <ele>1254</ele>
        <time>2017-10-05T00:12:44Z</time>
      </trkpt>
      <trkpt lat="42.30364" lon="8.88506">
        <ele>1252</ele>
        <time>2017-10-05T00:14:44Z</time>
      </trkpt>
      <trkpt lat="42.30354" lon="8.88524">
        <ele>1251</ele>
        <time>2017-10-05T00:16:44Z</time>
      </trkpt>
      <trkpt lat="42.30339" lon="8.88531">
        <ele>1250</ele>
        <time>2017-10-05T00:18:44Z</time>
      </trkpt>
      <trkpt lat="42.3032" lon="8.88531">
        <ele>1251</ele>
        <time>2017-10-05T00:20:44Z</time>
      </trkpt>
      <trkpt lat="42.30302" lon="8.88533">
        <ele>1253</ele>
        <time>2017-10-05T00:22:44Z</time>
      </trkpt>
      <trkpt lat="42.30294" lon="8.88554">
        <ele>1253</ele>
        <time>2017-10-05T00:24:44Z</time>
      </trkpt>
      <trkpt lat="42.30294" lon="8.88569">
        <ele>1253</ele>
        <time>2017-10-05T00:26:44Z</time>
      </trkpt>
      <trkpt lat="42.30285" lon="8.88554">
        <ele>1255</ele>
        <time>2017-10-05T00:28:44Z</time>
      </trkpt>
      <trkpt lat="42.30271" lon="8.88513">
        <ele>1257</ele>
        <time>2017-10-05T00:30:44Z</time>
      </trkpt>
      <trkpt lat="42.30268" lon="8.88476">
        <ele>1259</ele>
        <time>2017-10-05T00:32:44Z</time>
      </trkpt>
      <trkpt lat="42.30272" lon="8.88441">
        <ele>1260</ele>
        <time>2017-10-05T00:34:44Z</time>
      </trkpt>
      <trkpt lat="42.3026" lon="8.88432">
        <ele>1262</ele>
        <time>2017-10-05T00:36:44Z</time>
      </trkpt>
      <trkpt lat="42.30244" lon="8.88454">
        <ele>1263</ele>
        <time>2017-10-05T00:38:44Z</time>
      </trkpt>
      <trkpt lat="42.30233" lon="8.88479">
        <ele>1264</ele>
        <time>2017-10-05T00:40:44Z</time>
      </trkpt>
      <trkpt lat="42.30228" lon="8.8852">
        <ele>1263</ele>
        <time>2017-10-05T00:42:44Z</time>
      </trkpt>
      <trkpt lat="42.30203" lon="8.88539">
        <ele>1268</ele>
        <time>2017-10-05T00:44:44Z</time>
      </trkpt>
      <trkpt lat="42.30161" lon="8.88587">
        <ele>1276</ele>
        <time>2017-10-05T00:46:44Z</time>
      </trkpt>
      <trkpt lat="42.30147" lon="8.88653">
        <ele>1281</ele>
        <time>2017-10-05T00:48:44Z</time>
      </trkpt>
      <trkpt lat="42.30129" lon="8.88688">
        <ele>1286</ele>
        <time>2017-10-05T00:50:44Z</time>
      </trkpt>
      <trkpt lat="42.30119" lon="8.88725">
        <ele>1288</ele>
        <time>2017-10-05T00:52:44Z</time>
      </trkpt>
      <trkpt lat="42.30107" lon="8.8874">
        <ele>1292</ele>
        <time>2017-10-05T00:54:44Z</time>
      </trkpt>
      <trkpt lat="42.30102" lon="8.887">
        <ele>1297</ele>
        <time>2017-10-05T00:56:44Z</time>
      </trkpt>
      <trkpt lat="42.30091" lon="8.88628">
        <ele>1306</ele>
        <time>2017-10-05T00:58:44Z</time>
      </trkpt>
      <trkpt lat="42.30084" lon="8.88557">
        <ele>1311</ele>
        <time>2017-10-05T01:00:44Z</time>
      </trkpt>
      <trkpt lat="42.30077" lon="8.88527">
        <ele>1314</ele>
        <time>2017-10-05T01:02:44Z</time>
      </trkpt>
      <trkpt lat="42.30067" lon="8.8854">
        <ele>1317</ele>
        <time>2017-10-05T01:04:44Z</time>
      </trkpt>
      <trkpt lat="42.30055" lon="8.88618">
        <ele>1318</ele>
        <time>2017-10-05T01:06:44Z</time>
      </trkpt>
      <trkpt lat="42.30046" lon="8.88685">
        <ele>1316</ele>
        <time>2017-10-05T01:08:44Z</time>
      </trkpt>
      <trkpt lat="42.30044" lon="8.88719">
        <ele>1314</ele>
        <time>2017-10-05T01:10:44Z</time>
      </trkpt>
      <trkpt lat="42.30032" lon="8.88742">
        <ele>1315</ele>
        <time>2017-10-05T01:12:44Z</time>
      </trkpt>
      <trkpt lat="42.30015" lon="8.88738">
        <ele>1319</ele>
        <time>2017-10-05T01:14:44Z</time>
      </trkpt>
      <trkpt lat="42.29995" lon="8.88682">
        <ele>1327</ele>
        <time>2017-10-05T01:16:44Z</time>
      </trkpt>
      <trkpt lat="42.29987" lon="8.88642">
        <ele>1328</ele>
        <time>2017-10-05T01:18:44Z</time>
      </trkpt>
      <trkpt lat="42.29987" lon="8.8858">
        <ele>1333</ele>
        <time>2017-10-05T01:20:44Z</time>
      </trkpt>
      <trkpt lat="42.29981" lon="8.88559">
        <ele>1333</ele>
        <time>2017-10-05T01:22:44Z</time>
      </trkpt>
      <trkpt lat="42.2997" lon="8.88513">
        <ele>1333</ele>
        <time>2017-10-05T01:24:44Z</time>
      </trkpt>
      <trkpt lat="42.29963" lon="8.88455">
        <ele>1339</ele>
        <time>2017-10-05T01:26:44Z</time>
      </trkpt>
      <trkpt lat="42.2995" lon="8.88414">
        <ele>1342</ele>
        <time>2017-10-05T01:28:44Z</time>
      </trkpt>
      <trkpt lat="42.29933" lon="8.88384">
        <ele>1342</ele>
        <time>2017-10-05T01:30:44Z</time>
      </trkpt>
      <trkpt lat="42.29921" lon="8.88367">
        <ele>1342</ele>
        <time>2017-10-05T01:32:44Z</time>
      </trkpt>
      <trkpt lat="42.29903" lon="8.88352">
        <ele>1342</ele>
        <time>2017-10-05T01:34:44Z</time>
      </trkpt>
      <trkpt lat="42.29882" lon="8.88354">
        <ele>1341</ele>
        <time>2017-10-05T01:36:44Z</time>
      </trkpt>
      <trkpt lat="42.29866" lon="8.88373">
        <ele>1338</ele>
        <time>2017-10-05T01:38:44Z</time>
      </trkpt>
      <trkpt lat="42.29851" lon="8.88389">
        <ele>1335</ele>
        <time>2017-10-05T01:40:44Z</time>
      </trkpt>
      <trkpt lat="42.29831" lon="8.8838">
        <ele>1335</ele>
        <time>2017-10-05T01:42:44Z</time>
      </trkpt>
      <trkpt lat="42.2982" lon="8.88378">
        <ele>1338</ele>
        <time>2017-10-05T01:44:44Z</time>
      </trkpt>
      <trkpt lat="42.29801" lon="8.88388">
        <ele>1340</ele>
        <time>2017-10-05T01:46:44Z</time>
      </trkpt>
      <trkpt lat="42.29782" lon="8.88409">
        <ele>1342</ele>
        <time>2017-10-05T01:48:44Z</time>
      </trkpt>
      <trkpt lat="42.29768" lon="8.88425">
        <ele>1342</ele>
        <time>2017-10-05T01:50:44Z</time>
      </trkpt>
      <trkpt lat="42.29756" lon="8.88443">
        <ele>1340</ele>
        <time>2017-10-05T01:52:44Z</time>
      </trkpt>
      <trkpt lat="42.29747" lon="8.88456">
        <ele>1338</ele>
        <time>2017-10-05T01:54:44Z</time>
      </trkpt>
      <trkpt lat="42.2974" lon="8.88477">
        <ele>1334</ele>
        <time>2017-10-05T01:56:44Z</time>
      </trkpt>
      <trkpt lat="42.29735" lon="8.88502">
        <ele>1328</ele>
        <time>2017-10-05T01:58:44Z</time>
      </trkpt>
      <trkpt lat="42.29724" lon="8.88521">
        <ele>1326</ele>
        <time>2017-10-05T02:00:44Z</time>
      </trkpt>
    </trkseg>
  </trk>
</gpx>